createdAt,value
2019-04-23T00:00:13.609Z,8.70
2019-04-23T00:02:58.530Z,11.37
2019-04-23T00:05:41.904Z,8.27
2019-04-23T00:08:11.268Z,11.73
2019-04-23T00:10:44.532Z,8.57
2019-04-23T00:13:26.051Z,8.97
2019-04-23T00:21:37.513Z,8.20
2019-04-23T00:24:53.093Z,9.40
2019-04-23T00:27:17.332Z,11.87
2019-04-23T00:29:40.197Z,8.57
2019-04-23T00:32:15.646Z,13.57
2019-04-23T00:34:47.992Z,8.87
2019-04-23T00:37:25.449Z,9.97
2019-04-23T00:39:54.724Z,9.50
2019-04-23T00:45:01.734Z,10.43
2019-04-23T00:47:38.780Z,12.53
2019-04-23T00:52:50.190Z,12.57
2019-04-23T00:55:21.197Z,21.93
2019-04-23T00:58:11.164Z,10.77
2019-04-23T01:00:45.138Z,9.80
2019-04-23T01:03:12.654Z,9.10
2019-04-23T01:05:47.101Z,9.37
2019-04-23T01:08:28.189Z,20.20
2019-04-23T01:11:21.097Z,11.33
2019-04-23T01:13:44.289Z,9.30
2019-04-23T01:16:15.055Z,12.60
2019-04-23T01:18:58.231Z,15.97
2019-04-23T01:21:19.910Z,14.40
2019-04-23T01:24:13.962Z,14.53
2019-04-23T01:27:39.750Z,13.30
2019-04-23T01:30:08.416Z,10.60
2019-04-23T01:37:46.678Z,9.73
2019-04-23T01:40:18.766Z,15.43
2019-04-23T01:42:49.344Z,12.83
2019-04-23T01:47:59.695Z,11.00
2019-04-23T01:50:47.094Z,14.47
2019-04-23T01:53:14.978Z,25.03
2019-04-23T01:55:46.967Z,13.07
2019-04-23T01:58:36.526Z,14.57
2019-04-23T02:00:52.857Z,11.63
2019-04-23T02:03:49.896Z,15.73
2019-04-23T02:06:10.180Z,12.73
2019-04-23T02:08:45.846Z,15.80
2019-04-23T02:11:13.196Z,12.43
2019-04-23T02:13:51.582Z,11.17
2019-04-23T02:16:24.731Z,10.90
2019-04-23T02:19:07.692Z,13.30
2019-04-23T02:21:43.439Z,13.87
2019-04-23T02:24:14.718Z,14.43
2019-04-23T02:26:43.900Z,12.93
2019-04-23T02:29:44.623Z,11.63
2019-04-23T02:37:18.697Z,13.17
2019-04-23T02:39:54.697Z,15.23
2019-04-23T02:42:28.649Z,26.70
2019-04-23T02:44:56.422Z,15.87
2019-04-23T02:47:34.783Z,11.73
2019-04-23T02:52:43.151Z,12.90
2019-04-23T03:05:40.297Z,13.40
2019-04-23T03:10:43.286Z,13.80
2019-04-23T03:16:21.860Z,13.03
2019-04-23T03:25:07.173Z,22.00
2019-04-23T03:27:34.230Z,13.47
2019-04-23T03:30:16.729Z,19.10
2019-04-23T03:36:10.608Z,13.60
2019-04-23T03:38:07.575Z,15.70
2019-04-23T03:40:27.656Z,13.97
2019-04-23T03:46:07.153Z,22.07
2019-04-23T03:48:26.227Z,15.10
2019-04-23T03:51:11.270Z,18.23
2019-04-23T04:06:33.753Z,21.80
2019-04-23T04:09:13.273Z,22.20
2019-04-23T04:11:34.292Z,23.33
2019-04-23T04:14:36.350Z,14.90
2019-04-23T04:16:42.779Z,18.00
2019-04-23T04:19:28.777Z,26.50
2019-04-23T04:22:13.510Z,18.47
2019-04-23T04:27:05.431Z,18.47
2019-04-23T04:32:11.897Z,16.43
2019-04-23T04:40:08.380Z,26.23
2019-04-23T04:42:28.593Z,17.93
2019-04-23T04:45:37.129Z,17.97
2019-04-23T04:47:42.215Z,17.13
2019-04-23T04:50:04.805Z,19.60
2019-04-23T04:53:18.354Z,23.27
2019-04-23T04:55:26.581Z,20.33
2019-04-23T04:57:58.132Z,18.60
2019-04-23T05:01:05.594Z,28.30
2019-04-23T05:03:22.172Z,17.57
2019-04-23T05:06:08.106Z,32.17
2019-04-23T05:08:34.413Z,27.77
2019-04-23T05:11:02.042Z,19.97
2019-04-23T05:13:41.305Z,29.63
2019-04-23T05:16:06.068Z,29.50
2019-04-23T05:19:02.684Z,25.93
2019-04-23T05:21:44.186Z,21.20
2019-04-23T05:23:54.076Z,19.93
2019-04-23T05:26:24.791Z,26.43
2019-04-23T05:29:06.424Z,29.03
2019-04-23T05:31:48.401Z,21.90
2019-04-23T05:39:26.870Z,24.33
2019-04-23T05:44:29.574Z,24.80
2019-04-23T05:47:07.201Z,21.50
2019-04-23T05:49:31.241Z,25.20
2019-04-23T05:52:07.526Z,25.63
2019-04-23T05:54:54.475Z,21.93
2019-04-23T05:57:13.749Z,22.90
2019-04-23T06:02:26.213Z,30.10
2019-04-23T06:04:57.259Z,28.50
2019-04-23T06:07:49.377Z,21.83
2019-04-23T06:10:14.610Z,28.27
2019-04-23T06:12:46.419Z,24.50
2019-04-23T06:15:20.785Z,29.43
2019-04-23T06:18:01.752Z,31.47
2019-04-23T06:20:47.213Z,23.57
2019-04-23T06:23:20.924Z,28.33
2019-04-23T06:25:57.715Z,31.47
2019-04-23T06:28:24.158Z,30.57
2019-04-23T06:31:04.657Z,27.13
2019-04-23T06:36:09.002Z,29.53
2019-04-23T06:41:23.340Z,28.57
2019-04-23T06:44:05.858Z,38.50
2019-04-23T06:46:48.054Z,34.30
2019-04-23T06:49:20.638Z,33.90
2019-04-23T06:54:26.609Z,35.07
2019-04-23T06:59:34.059Z,29.63
2019-04-23T07:04:55.166Z,30.17
2019-04-23T07:07:36.519Z,28.20
2019-04-23T07:09:52.370Z,33.73
2019-04-23T07:12:35.061Z,30.13
2019-04-23T07:15:11.624Z,27.70
2019-04-23T07:17:31.045Z,28.03
2019-04-23T07:20:09.777Z,39.03
2019-04-23T07:22:42.788Z,25.97
2019-04-23T07:25:17.277Z,30.03
2019-04-23T07:27:49.263Z,33.00
2019-04-23T07:30:31.449Z,27.73
2019-04-23T07:33:05.665Z,35.67
2019-04-23T07:35:47.922Z,29.27
2019-04-23T07:38:56.981Z,41.50
2019-04-23T07:44:36.902Z,37.20
2019-04-23T07:49:49.349Z,44.50
2019-04-23T07:52:24.208Z,31.20
2019-04-23T07:55:02.520Z,27.90
2019-04-23T07:57:34.418Z,28.07
2019-04-23T08:02:37.138Z,43.50
2019-04-23T08:05:25.162Z,41.60
2019-04-23T08:07:54.112Z,27.53
2019-04-23T08:10:22.695Z,37.40
2019-04-23T08:13:00.940Z,29.27
2019-04-23T08:15:35.116Z,26.83
2019-04-23T08:18:13.557Z,25.67
2019-04-23T08:23:25.638Z,34.70
2019-04-23T08:26:29.561Z,38.53
2019-04-23T08:29:12.519Z,35.73
2019-04-23T08:31:33.625Z,27.77
2019-04-23T08:34:16.770Z,36.13
2019-04-23T08:36:44.387Z,28.10
2019-04-23T08:39:13.753Z,27.13
2019-04-23T08:42:09.494Z,28.77
2019-04-23T08:44:57.005Z,30.43
2019-04-23T08:47:27.784Z,28.07
2019-04-23T08:49:59.376Z,39.37
2019-04-23T08:52:29.989Z,34.73
2019-04-23T08:55:11.184Z,42.07
2019-04-23T08:57:38.306Z,26.57
2019-04-23T09:00:17.713Z,38.93
2019-04-23T09:02:54.029Z,30.57
2019-04-23T09:05:28.630Z,28.20
2019-04-23T09:08:10.146Z,30.17
2019-04-23T09:10:41.154Z,35.23
2019-04-23T09:13:43.899Z,28.77
2019-04-23T09:15:49.810Z,28.43
2019-04-23T09:18:41.925Z,27.03
2019-04-23T09:20:55.118Z,28.63
2019-04-23T09:26:06.200Z,29.13
2019-04-23T09:34:09.618Z,37.23
2019-04-23T09:37:06.226Z,30.10
2019-04-23T09:40:14.954Z,32.10
2019-04-23T09:45:33.802Z,39.27
2019-04-23T09:48:18.387Z,25.83
2019-04-23T09:50:50.782Z,27.07
2019-04-23T09:53:25.186Z,31.63
2019-04-23T09:55:49.394Z,27.17
2019-04-23T09:58:24.665Z,29.67
2019-04-23T10:03:50.491Z,26.03
2019-04-23T10:06:19.067Z,25.90
2019-04-23T10:08:52.015Z,25.90
2019-04-23T10:11:22.324Z,23.63
2019-04-23T10:13:56.740Z,27.30
2019-04-23T10:16:34.141Z,28.80
2019-04-23T10:19:04.076Z,24.30
2019-04-23T10:21:41.857Z,29.40
2019-04-23T10:24:17.099Z,26.93
2019-04-23T10:26:50.375Z,26.03
2019-04-23T10:29:27.808Z,21.40
2019-04-23T10:31:59.858Z,30.07
2019-04-23T10:34:46.076Z,39.10
2019-04-23T10:37:09.551Z,33.03
2019-04-23T10:39:50.315Z,23.80
2019-04-23T10:42:18.483Z,41.77
2019-04-23T10:45:19.282Z,26.80
2019-04-23T10:48:28.078Z,33.20
2019-04-23T10:51:30.621Z,44.27
2019-04-23T10:59:31.639Z,33.43
2019-04-23T11:02:24.038Z,28.10
2019-04-23T11:07:29.844Z,32.43
2019-04-23T11:13:12.110Z,32.50
2019-04-23T11:18:14.253Z,31.77
2019-04-23T11:20:54.494Z,32.70
2019-04-23T11:23:04.928Z,34.03
2019-04-23T11:25:44.876Z,27.07
2019-04-23T11:30:55.307Z,31.70
2019-04-23T11:33:40.211Z,28.47
2019-04-23T11:38:56.205Z,23.90
2019-04-23T11:41:32.382Z,25.20
2019-04-23T11:44:09.708Z,27.83
2019-04-23T11:46:46.198Z,22.93
2019-04-23T11:54:27.742Z,21.27
2019-04-23T11:59:36.400Z,22.40
2019-04-23T12:02:35.548Z,32.60
2019-04-23T12:05:29.714Z,24.83
2019-04-23T12:08:17.509Z,24.37
2019-04-23T12:11:25.576Z,21.40
2019-04-23T12:13:35.413Z,21.10
2019-04-23T12:16:10.592Z,19.70
2019-04-23T12:18:58.135Z,32.10
2019-04-23T12:21:28.330Z,23.00
2019-04-23T12:24:04.702Z,19.47
2019-04-23T12:26:35.526Z,20.30
2019-04-23T12:29:12.686Z,21.30
2019-04-23T12:31:47.739Z,21.40
2019-04-23T12:34:30.123Z,19.90
2019-04-23T12:36:56.940Z,19.40
2019-04-23T12:39:33.016Z,38.00
2019-04-23T12:42:25.451Z,17.83
2019-04-23T12:44:45.818Z,17.30
2019-04-23T12:47:27.120Z,22.40
2019-04-23T12:50:05.419Z,21.40
2019-04-23T12:52:35.914Z,18.40
2019-04-23T12:55:06.782Z,21.73
2019-04-23T12:57:35.580Z,21.97
2019-04-23T13:00:05.084Z,22.47
2019-04-23T13:05:14.526Z,23.00
2019-04-23T13:08:08.656Z,25.63
2019-04-23T13:10:30.263Z,25.63
2019-04-23T13:13:11.456Z,21.87
2019-04-23T13:15:34.235Z,23.73
2019-04-23T13:18:15.394Z,20.17
2019-04-23T13:21:02.101Z,24.93
2019-04-23T13:25:59.726Z,21.47
2019-04-23T13:38:52.671Z,17.30
2019-04-23T13:41:27.891Z,16.13
2019-04-23T13:44:15.779Z,15.33
2019-04-23T13:46:49.762Z,16.40
2019-04-23T13:49:07.375Z,12.57
2019-04-23T13:52:13.759Z,13.17
2019-04-23T13:54:28.435Z,29.20
2019-04-23T13:57:25.675Z,12.10
2019-04-23T13:59:39.464Z,11.80
2019-04-23T14:02:11.466Z,14.33
2019-04-23T14:07:44.616Z,13.57
2019-04-23T14:10:13.554Z,9.10
2019-04-23T14:15:35.174Z,7.73
2019-04-23T14:18:10.476Z,8.60
2019-04-23T14:20:29.889Z,9.17
2019-04-23T14:23:17.822Z,11.33
2019-04-23T14:25:50.655Z,8.80
2019-04-23T14:30:54.209Z,9.33
2019-04-23T14:33:40.528Z,16.13
2019-04-23T14:36:03.219Z,10.90
2019-04-23T14:41:21.404Z,11.20
2019-04-23T14:43:49.811Z,12.23
2019-04-23T14:46:46.615Z,11.07
2019-04-23T14:51:44.094Z,10.17
2019-04-23T14:54:04.842Z,11.17
2019-04-23T14:56:58.831Z,17.23
2019-04-23T14:59:10.529Z,13.90
2019-04-23T15:01:49.791Z,12.20
2019-04-23T15:04:28.814Z,11.63
2019-04-23T15:07:08.950Z,13.10
2019-04-23T15:12:16.020Z,13.60
2019-04-23T15:14:51.299Z,20.83
2019-04-23T15:17:20.043Z,16.57
2019-04-23T15:20:03.051Z,26.20
2019-04-23T15:22:53.246Z,21.50
2019-04-23T15:28:05.340Z,25.20
2019-04-23T15:30:14.396Z,25.23
2019-04-23T15:33:19.844Z,26.77
2019-04-23T15:35:48.517Z,28.47
2019-04-23T15:38:28.672Z,32.50
2019-04-23T15:40:59.042Z,35.53
2019-04-23T15:43:15.357Z,28.60
2019-04-23T15:45:55.434Z,28.20
2019-04-23T15:48:26.346Z,28.00
2019-04-23T15:51:08.067Z,26.47
2019-04-23T15:53:28.487Z,27.83
2019-04-23T15:56:16.042Z,25.57
2019-04-23T15:58:47.073Z,34.97
2019-04-23T16:03:27.469Z,26.37
2019-04-23T16:05:59.649Z,26.73
2019-04-23T16:09:04.766Z,25.53
2019-04-23T16:17:05.086Z,24.20
2019-04-23T16:19:54.193Z,21.83
2019-04-23T16:22:33.231Z,18.37
2019-04-23T16:24:55.305Z,17.50
2019-04-23T16:27:21.476Z,16.60
2019-04-23T16:30:10.424Z,14.47
2019-04-23T16:33:02.457Z,13.33
2019-04-23T16:38:26.619Z,11.67
2019-04-23T16:43:12.715Z,9.70
2019-04-23T16:46:02.085Z,12.00
2019-04-23T16:48:44.022Z,7.43
2019-04-23T16:51:16.648Z,8.20
2019-04-23T16:53:30.258Z,8.80
2019-04-23T16:56:42.765Z,9.03
2019-04-23T17:01:19.830Z,8.10
2019-04-23T17:04:00.026Z,7.57
2019-04-23T17:06:44.285Z,6.53
2019-04-23T17:08:59.911Z,6.40
2019-04-23T17:11:35.924Z,7.83
2019-04-23T17:14:13.485Z,6.70
2019-04-23T17:19:22.704Z,6.87
2019-04-23T17:21:59.731Z,7.90
2019-04-23T17:24:27.630Z,7.20
2019-04-23T17:27:08.576Z,8.37
2019-04-23T17:29:43.895Z,8.93
2019-04-23T17:32:28.517Z,10.87
2019-04-23T17:37:53.909Z,12.73
2019-04-23T17:40:30.615Z,14.50
2019-04-23T17:43:05.879Z,14.20
2019-04-23T17:46:02.590Z,15.03
2019-04-23T17:48:22.174Z,16.27
2019-04-23T17:51:02.764Z,18.00
2019-04-23T17:53:42.171Z,17.20
2019-04-23T17:58:51.519Z,18.17
2019-04-23T18:04:20.587Z,19.90
2019-04-23T18:09:27.532Z,21.77
2019-04-23T18:11:53.877Z,22.60
2019-04-23T18:14:16.562Z,21.87
2019-04-23T18:17:07.178Z,23.07
2019-04-23T18:19:44.498Z,30.90
2019-04-23T18:22:27.763Z,23.87
2019-04-23T18:25:20.631Z,26.10
2019-04-23T18:30:51.131Z,27.67
2019-04-23T18:34:03.715Z,25.80
2019-04-23T18:36:08.074Z,26.10
2019-04-23T18:38:46.327Z,29.20
2019-04-23T18:41:10.710Z,26.93
2019-04-23T18:43:58.907Z,28.80
2019-04-23T18:48:59.055Z,28.20
2019-04-23T18:51:40.479Z,30.73
2019-04-23T18:54:15.372Z,26.60
2019-04-23T18:57:06.430Z,28.17
2019-04-23T18:59:37.255Z,30.13
2019-04-23T19:05:10.116Z,25.30
2019-04-23T19:10:48.679Z,26.27
2019-04-23T19:13:40.338Z,26.33
2019-04-23T19:15:48.779Z,24.87
2019-04-23T19:18:36.435Z,25.50
2019-04-23T19:21:30.113Z,27.40
2019-04-23T19:26:24.412Z,23.73
2019-04-23T19:31:40.463Z,24.53
2019-04-23T19:39:26.327Z,25.70
2019-04-23T19:44:28.021Z,25.20
2019-04-23T19:49:36.927Z,25.47
2019-04-23T19:52:03.114Z,28.87
2019-04-23T19:54:55.063Z,29.47
2019-04-23T19:59:58.129Z,31.03
2019-04-23T20:02:46.664Z,30.03
2019-04-23T20:04:59.530Z,31.97
2019-04-23T20:10:04.112Z,35.73
2019-04-23T20:12:50.037Z,35.47
2019-04-23T20:15:15.943Z,35.80
2019-04-23T20:17:54.143Z,38.73
2019-04-23T20:20:38.348Z,35.20
2019-04-23T20:23:37.875Z,35.80
2019-04-23T20:28:40.856Z,35.30
2019-04-23T20:34:19.656Z,37.23
2019-04-23T20:36:40.679Z,39.87
2019-04-23T20:39:17.390Z,42.30
2019-04-23T20:42:08.900Z,38.33
2019-04-23T20:44:42.444Z,38.43
2019-04-23T20:49:43.007Z,39.20
2019-04-23T20:52:07.373Z,37.23
2019-04-23T20:54:56.885Z,36.93
2019-04-23T20:57:45.528Z,49.20
2019-04-23T21:05:27.152Z,38.70
2019-04-23T21:08:14.480Z,39.00
2019-04-23T21:10:41.590Z,39.43
2019-04-23T21:13:28.038Z,41.23
2019-04-23T21:15:54.684Z,34.70
2019-04-23T21:18:35.968Z,37.63
2019-04-23T21:21:02.548Z,36.57
2019-04-23T21:23:37.710Z,30.27
2019-04-23T21:26:01.643Z,35.57
2019-04-23T21:36:56.129Z,32.10
2019-04-23T21:40:19.200Z,34.40
2019-04-23T21:43:01.548Z,33.47
2019-04-23T21:45:40.728Z,35.87
2019-04-23T21:48:08.347Z,33.53
2019-04-23T21:50:52.518Z,36.50
2019-04-23T21:53:18.403Z,39.50
2019-04-23T21:55:56.247Z,40.70
2019-04-23T21:58:36.673Z,34.47
2019-04-23T22:01:18.711Z,34.53
2019-04-23T22:06:33.555Z,49.33
2019-04-23T22:16:53.909Z,42.03
2019-04-23T22:21:50.942Z,42.27
2019-04-23T22:24:19.789Z,38.50
2019-04-23T22:26:54.541Z,40.10
2019-04-23T22:29:37.756Z,37.83
2019-04-23T22:31:58.242Z,44.00
2019-04-23T22:34:43.201Z,42.10
2019-04-23T22:42:42.903Z,39.50
2019-04-23T22:45:07.130Z,44.40
2019-04-23T22:47:33.602Z,43.90
2019-04-23T22:50:06.144Z,45.60
2019-04-23T22:55:13.985Z,44.43
2019-04-23T23:00:16.587Z,49.83
2019-04-23T23:03:08.270Z,45.57
2019-04-23T23:06:10.675Z,42.27
2019-04-23T23:08:36.190Z,44.20
2019-04-23T23:10:57.006Z,45.30
2019-04-23T23:13:48.328Z,46.40
2019-04-23T23:18:39.297Z,53.30
2019-04-23T23:21:20.225Z,50.40
2019-04-23T23:23:52.835Z,47.27
2019-04-23T23:26:28.156Z,52.27
2019-04-23T23:29:05.852Z,51.53
2019-04-23T23:31:39.852Z,53.87
2019-04-23T23:34:15.758Z,51.60
2019-04-23T23:39:22.784Z,51.63
2019-04-23T23:41:57.213Z,47.00
2019-04-23T23:47:12.728Z,56.00
2019-04-23T23:52:13.260Z,52.07
2019-04-23T23:54:52.522Z,49.53
2019-04-23T23:57:23.409Z,73.03
